createdAt,value
2018-07-22T15:46:54.833Z,1002.78
2018-07-22T15:48:09.378Z,1002.8
2018-07-22T15:49:24.230Z,1002.78
2018-07-22T15:50:38.766Z,1002.77
2018-07-22T15:51:53.536Z,1002.74
2018-07-22T15:53:08.263Z,1002.72
2018-07-22T15:54:22.593Z,1002.71
2018-07-22T15:55:37.343Z,1002.72
2018-07-22T15:56:53.053Z,1002.73
2018-07-22T15:58:07.062Z,1002.71
2018-07-22T15:59:22.089Z,1002.7
2018-07-22T16:00:36.387Z,1002.71
2018-07-22T16:01:51.130Z,1002.7
2018-07-22T16:03:05.893Z,1002.7
2018-07-22T16:04:20.162Z,1002.74
2018-07-22T16:05:34.413Z,1002.79
2018-07-22T16:06:49.095Z,1002.8
2018-07-22T16:08:04.531Z,1002.82
2018-07-22T16:09:18.770Z,1002.79
2018-07-22T16:10:33.499Z,1002.82
2018-07-22T16:11:48.040Z,1002.77
2018-07-22T16:13:02.793Z,1002.74
2018-07-22T16:14:17.026Z,1002.73
2018-07-22T16:15:31.521Z,1002.74
2018-07-22T16:16:46.512Z,1002.71
2018-07-22T16:18:00.819Z,1002.7
2018-07-22T16:19:15.292Z,1002.65
2018-07-22T16:20:29.912Z,1002.73
2018-07-22T16:21:44.570Z,1002.67
2018-07-22T16:22:59.061Z,1002.66
2018-07-22T16:24:14.304Z,1002.65
2018-07-22T16:25:29.039Z,1002.67
2018-07-22T16:26:43.506Z,1002.66
2018-07-22T16:27:58.474Z,1002.67
2018-07-22T16:29:13.188Z,1002.69
2018-07-22T16:30:27.668Z,1002.71
2018-07-22T16:31:41.952Z,1002.71
2018-07-22T16:32:56.929Z,1002.67
2018-07-22T16:34:10.898Z,1002.7
2018-07-22T16:35:25.919Z,1002.64
2018-07-22T16:36:40.371Z,1002.69
2018-07-22T16:37:55.490Z,1002.66
2018-07-22T16:39:09.988Z,1002.69
2018-07-22T16:40:24.717Z,1002.66
2018-07-22T16:41:38.662Z,1002.7
2018-07-22T16:42:53.375Z,1002.68
2018-07-22T16:44:07.838Z,1002.67
2018-07-22T16:45:22.342Z,1002.66
2018-07-22T16:46:36.802Z,1002.73
2018-07-22T16:47:51.798Z,1002.74
2018-07-22T16:49:06.082Z,1002.7
2018-07-22T16:50:19.813Z,1002.72
2018-07-22T16:51:34.616Z,1002.73
2018-07-22T16:52:49.387Z,1002.71
2018-07-22T16:54:04.080Z,1002.72
2018-07-22T16:55:18.855Z,1002.72
2018-07-22T16:56:33.613Z,1002.72
2018-07-22T16:57:48.192Z,1002.74
2018-07-22T16:59:02.445Z,1002.76
2018-07-22T17:00:16.938Z,1002.75
2018-07-22T17:01:31.464Z,1002.74
2018-07-22T17:02:45.821Z,1002.76
2018-07-22T17:04:00.562Z,1002.78
2018-07-22T17:05:15.377Z,1002.81
2018-07-22T17:06:30.225Z,1002.78
2018-07-22T17:07:44.926Z,1002.75
2018-07-22T17:08:59.408Z,1002.83
2018-07-22T17:10:13.657Z,1002.83
2018-07-22T17:11:28.127Z,1002.88
2018-07-22T17:12:43.075Z,1002.85
2018-07-22T17:13:57.161Z,1002.85
2018-07-22T17:15:11.875Z,1002.83
2018-07-22T17:16:26.070Z,1002.87
2018-07-22T17:17:40.277Z,1002.92
2018-07-22T17:18:54.907Z,1002.86
2018-07-22T17:20:08.881Z,1002.83
2018-07-22T17:21:23.789Z,1002.87
2018-07-22T17:22:38.030Z,1002.86
2018-07-22T17:23:52.977Z,1002.86
2018-07-22T17:25:07.696Z,1002.86
2018-07-22T17:26:22.508Z,1002.92
2018-07-22T17:27:36.719Z,1002.97
2018-07-22T17:28:51.335Z,1002.99
2018-07-22T17:30:05.820Z,1002.99
2018-07-22T17:31:20.661Z,1002.97
2018-07-22T17:32:35.876Z,1002.96
2018-07-22T17:33:50.745Z,1002.98
2018-07-22T17:35:04.720Z,1003
2018-07-22T17:36:19.211Z,1002.99
2018-07-22T17:37:33.918Z,1003
2018-07-22T17:38:48.926Z,1003
2018-07-22T17:40:04.072Z,1003
2018-07-22T17:41:18.835Z,1003.01
2018-07-22T17:42:33.032Z,1003.02
2018-07-22T17:43:47.510Z,1003
2018-07-22T17:45:01.800Z,1003.06
2018-07-22T17:46:16.815Z,1003.03
2018-07-22T17:47:31.078Z,1003.08
2018-07-22T17:48:45.057Z,1003.11
2018-07-22T17:50:00.457Z,1003.11
2018-07-22T17:51:14.925Z,1003.12
2018-07-22T17:52:29.686Z,1003.15
2018-07-22T17:53:44.410Z,1003.14
2018-07-22T17:54:58.699Z,1003.09
2018-07-22T17:56:13.017Z,1003.09
2018-07-22T17:57:27.624Z,1003.11
2018-07-22T17:58:42.244Z,1003.11
2018-07-22T17:59:57.448Z,1003.07
2018-07-22T18:01:11.669Z,1003.09
2018-07-22T18:02:26.438Z,1003.07
2018-07-22T18:03:41.149Z,1003.06
2018-07-22T18:04:56.232Z,1003.1
2018-07-22T18:06:10.724Z,1003.1
2018-07-22T18:07:25.458Z,1003.1
2018-07-22T18:08:39.976Z,1003.09
2018-07-22T18:09:54.272Z,1003.06
2018-07-22T18:11:08.021Z,1003.08
2018-07-22T18:12:22.511Z,1003.04
2018-07-22T18:13:36.269Z,1003.07
2018-07-22T18:14:50.683Z,1003.03
2018-07-22T18:16:05.434Z,1003.12
2018-07-22T18:17:19.958Z,1003.07
2018-07-22T18:18:34.716Z,1003.09
2018-07-22T18:19:50.393Z,1003.1
2018-07-22T18:21:05.443Z,1003.1
2018-07-22T18:22:20.175Z,1003.11
2018-07-22T18:23:34.689Z,1003.16
2018-07-22T18:24:49.682Z,1003.16
2018-07-22T18:26:04.538Z,1003.12
2018-07-22T18:27:19.017Z,1003.17
2018-07-22T18:28:33.763Z,1003.16
2018-07-22T18:29:48.496Z,1003.17
2018-07-22T18:31:03.003Z,1003.12
2018-07-22T18:32:24.083Z,1003.16
2018-07-22T18:33:39.058Z,1003.18
2018-07-22T18:34:53.859Z,1003.14
2018-07-22T18:36:08.075Z,1003.18
2018-07-22T18:37:22.064Z,1003.2
2018-07-22T18:38:37.493Z,1003.19
2018-07-22T18:39:51.772Z,1003.2
2018-07-22T18:41:05.604Z,1003.28
2018-07-22T18:42:20.158Z,1003.33
2018-07-22T18:43:34.912Z,1003.31
2018-07-22T18:44:49.176Z,1003.33
2018-07-22T18:46:04.094Z,1003.33
2018-07-22T18:47:18.387Z,1003.3
2018-07-22T18:48:32.894Z,1003.32
2018-07-22T18:49:48.965Z,1003.31
2018-07-22T18:51:03.911Z,1003.3
2018-07-22T18:52:18.691Z,1003.33
2018-07-22T18:53:33.462Z,1003.34
2018-07-22T18:54:48.511Z,1003.33
2018-07-22T18:56:03.614Z,1003.33
2018-07-22T18:57:18.204Z,1003.31
2018-07-22T18:58:32.777Z,1003.36
2018-07-22T18:59:47.643Z,1003.35
2018-07-22T19:01:01.960Z,1003.41
2018-07-22T19:02:16.992Z,1003.43
2018-07-22T19:03:31.536Z,1003.44
2018-07-22T19:06:26.709Z,1003.44
2018-07-22T19:07:41.173Z,1003.45
2018-07-22T19:08:55.950Z,1003.43
2018-07-22T19:10:10.741Z,1003.43
2018-07-22T19:11:25.139Z,1003.46
2018-07-22T19:12:38.813Z,1003.44
2018-07-22T19:13:53.749Z,1003.41
2018-07-22T19:15:08.443Z,1003.43
2018-07-22T19:16:22.669Z,1003.44
2018-07-22T19:17:36.940Z,1003.46
2018-07-22T19:18:51.621Z,1003.52
2018-07-22T19:20:06.600Z,1003.51
2018-07-22T19:21:20.561Z,1003.5
2018-07-22T19:22:35.330Z,1003.51
2018-07-22T19:23:50.318Z,1003.55
2018-07-22T19:25:05.282Z,1003.54
2018-07-22T19:26:19.980Z,1003.53
2018-07-22T19:27:34.844Z,1003.62
2018-07-22T19:28:49.280Z,1003.59
2018-07-22T19:30:04.697Z,1003.59
2018-07-22T19:31:18.942Z,1003.62
2018-07-22T19:32:33.961Z,1003.65
2018-07-22T19:33:48.753Z,1003.63
2018-07-22T19:35:02.737Z,1003.67
2018-07-22T19:36:17.310Z,1003.68
2018-07-22T19:37:31.758Z,1003.68
2018-07-22T19:38:46.485Z,1003.68
2018-07-22T19:40:01.488Z,1003.69
2018-07-22T19:41:16.332Z,1003.72
2018-07-22T19:42:31.161Z,1003.68
2018-07-22T19:43:45.938Z,1003.71
2018-07-22T19:45:00.198Z,1003.72
2018-07-22T19:46:14.495Z,1003.72
2018-07-22T19:47:29.365Z,1003.72
2018-07-22T19:48:44.113Z,1003.73
2018-07-22T19:49:58.092Z,1003.72
2018-07-22T19:51:12.307Z,1003.7
2018-07-22T19:52:27.267Z,1003.75
2018-07-22T19:53:41.844Z,1003.77
2018-07-22T19:54:56.284Z,1003.81
2018-07-22T19:56:10.943Z,1003.8
2018-07-22T19:57:26.009Z,1003.88
2018-07-22T19:58:40.930Z,1003.89
2018-07-22T19:59:55.888Z,1003.91
2018-07-22T20:01:10.614Z,1003.92
2018-07-22T20:02:25.291Z,1003.96
2018-07-22T20:03:39.785Z,1003.94
2018-07-22T20:04:53.782Z,1003.97
2018-07-22T20:06:08.169Z,1003.99
2018-07-22T20:07:22.862Z,1003.99
2018-07-22T20:08:37.340Z,1003.98
2018-07-22T20:09:51.535Z,1003.99
2018-07-22T20:11:06.084Z,1004.03
2018-07-22T20:12:21.089Z,1004.01
2018-07-22T20:13:35.449Z,1004.03
2018-07-22T20:14:49.905Z,1004.03
2018-07-22T20:16:04.334Z,1004.04
2018-07-22T20:17:18.553Z,1004.07
2018-07-22T20:18:33.377Z,1004.14
2018-07-22T20:19:48.109Z,1004.16
2018-07-22T20:21:03.089Z,1004.13
2018-07-22T20:22:17.838Z,1004.16
2018-07-22T20:23:32.645Z,1004.17
2018-07-22T20:24:46.924Z,1004.16
2018-07-22T20:26:01.380Z,1004.17
2018-07-22T20:27:16.330Z,1004.17
2018-07-22T20:28:31.059Z,1004.21
2018-07-22T20:29:45.286Z,1004.19
2018-07-22T20:30:59.753Z,1004.17
2018-07-22T20:32:14.207Z,1004.21
2018-07-22T20:33:28.777Z,1004.18
2018-07-22T20:34:43.740Z,1004.2
2018-07-22T20:35:58.506Z,1004.23
2018-07-22T20:37:13.586Z,1004.24
2018-07-22T20:38:28.274Z,1004.25
2018-07-22T20:39:42.986Z,1004.26
2018-07-22T20:40:57.290Z,1004.29
2018-07-22T20:42:12.404Z,1004.24
2018-07-22T20:43:27.024Z,1004.23
2018-07-22T20:44:40.941Z,1004.26
2018-07-22T20:45:55.383Z,1004.25
2018-07-22T20:47:09.620Z,1004.26
2018-07-22T20:48:24.570Z,1004.25
2018-07-22T20:49:39.101Z,1004.3
2018-07-22T20:50:53.602Z,1004.29
2018-07-22T20:52:07.945Z,1004.31
2018-07-22T20:53:22.328Z,1004.33
2018-07-22T20:54:36.564Z,1004.3
2018-07-22T20:55:51.049Z,1004.3
2018-07-22T20:57:05.813Z,1004.28
2018-07-22T20:58:20.069Z,1004.31
2018-07-22T21:27:19.725Z,1004.46
2018-07-22T21:28:34.678Z,1004.43
2018-07-22T21:29:49.122Z,1004.51
2018-07-22T21:31:03.569Z,1004.53
2018-07-22T21:32:18.097Z,1004.57
2018-07-22T21:33:32.578Z,1004.57
2018-07-22T21:34:47.874Z,1004.58
2018-07-22T21:36:01.917Z,1004.58
2018-07-22T21:37:16.971Z,1004.54
2018-07-22T21:38:31.662Z,1004.56
2018-07-22T21:39:46.083Z,1004.55
2018-07-22T21:41:00.337Z,1004.56
2018-07-22T21:42:14.837Z,1004.58
2018-07-22T21:43:29.042Z,1004.57
2018-07-22T21:44:43.471Z,1004.61
2018-07-22T21:45:58.482Z,1004.63
2018-07-22T21:47:12.972Z,1004.63
2018-07-22T21:48:27.723Z,1004.64
2018-07-22T21:49:42.232Z,1004.63
2018-07-22T21:50:56.759Z,1004.62
2018-07-22T21:52:11.257Z,1004.58
2018-07-22T21:53:25.748Z,1004.61
2018-07-22T21:54:39.967Z,1004.57
2018-07-22T21:55:54.918Z,1004.62
2018-07-22T21:57:09.529Z,1004.61
2018-07-22T21:58:24.528Z,1004.6
2018-07-22T21:59:39.501Z,1004.59
2018-07-22T22:00:53.718Z,1004.6
2018-07-22T22:02:07.943Z,1004.57
2018-07-22T22:03:22.688Z,1004.59
2018-07-22T22:04:37.419Z,1004.59
2018-07-22T22:05:52.137Z,1004.59
2018-07-22T22:07:06.845Z,1004.62
2018-07-22T22:08:21.471Z,1004.64
2018-07-22T22:09:36.435Z,1004.64
2018-07-22T22:10:49.901Z,1004.63
2018-07-22T22:12:04.098Z,1004.69
2018-07-22T22:13:19.045Z,1004.68
2018-07-22T22:14:33.864Z,1004.68
2018-07-22T22:15:48.822Z,1004.69
2018-07-22T22:17:03.094Z,1004.7
2018-07-22T22:18:18.145Z,1004.75
2018-07-22T22:21:56.676Z,1004.76
2018-07-22T22:23:10.953Z,1004.75
2018-07-22T22:24:25.146Z,1004.75
2018-07-22T22:25:40.236Z,1004.76
2018-07-22T22:26:55.170Z,1004.76
2018-07-22T22:28:10.093Z,1004.78
2018-07-22T22:29:25.183Z,1004.8
2018-07-22T22:30:39.364Z,1004.78
2018-07-22T22:31:54.061Z,1004.78
2018-07-22T22:33:08.556Z,1004.78
2018-07-22T22:34:23.434Z,1004.8
2018-07-22T22:35:37.895Z,1004.8
2018-07-22T22:36:52.990Z,1004.79
2018-07-22T22:38:07.705Z,1004.76
2018-07-22T22:39:22.839Z,1004.8
2018-07-22T22:40:37.583Z,1004.78
2018-07-22T22:41:52.068Z,1004.76
2018-07-22T22:43:06.532Z,1004.77
2018-07-22T22:44:20.873Z,1004.73
2018-07-22T22:45:34.778Z,1004.74
2018-07-22T22:46:49.183Z,1004.77
2018-07-22T22:48:03.600Z,1004.78
2018-07-22T22:49:17.921Z,1004.77
2018-07-22T22:50:32.070Z,1004.77
2018-07-22T22:51:46.764Z,1004.79
2018-07-22T22:53:01.479Z,1004.77
2018-07-22T22:54:16.115Z,1004.72
2018-07-22T22:55:30.098Z,1004.73
2018-07-22T22:56:44.806Z,1004.73
2018-07-22T22:57:58.725Z,1004.76
2018-07-22T22:59:13.230Z,1004.75
2018-07-22T23:00:28.145Z,1004.75
2018-07-22T23:01:42.317Z,1004.75
2018-07-22T23:02:56.745Z,1004.74
2018-07-22T23:04:11.450Z,1004.72
2018-07-22T23:05:25.985Z,1004.73
2018-07-22T23:06:40.449Z,1004.74
2018-07-22T23:07:55.112Z,1004.74
2018-07-22T23:09:09.798Z,1004.75
2018-07-22T23:10:24.074Z,1004.75
2018-07-22T23:11:38.759Z,1004.75
2018-07-22T23:12:53.183Z,1004.73
2018-07-22T23:14:07.393Z,1004.76
2018-07-22T23:15:21.881Z,1004.73
2018-07-22T23:16:36.321Z,1004.75
2018-07-22T23:17:50.985Z,1004.8
2018-07-22T23:19:05.154Z,1004.78
2018-07-22T23:20:19.889Z,1004.83
2018-07-22T23:21:34.318Z,1004.79
2018-07-22T23:22:49.043Z,1004.79
2018-07-22T23:24:03.717Z,1004.8
2018-07-22T23:25:18.217Z,1004.82
2018-07-22T23:26:32.903Z,1004.8
2018-07-22T23:27:47.093Z,1004.81
2018-07-22T23:29:01.534Z,1004.86
2018-07-22T23:30:15.716Z,1004.9
2018-07-22T23:31:30.334Z,1004.9
2018-07-22T23:32:44.565Z,1004.9
2018-07-22T23:33:59.028Z,1004.88
2018-07-22T23:35:13.687Z,1004.87
2018-07-22T23:36:28.663Z,1004.89
2018-07-22T23:37:43.086Z,1004.9
2018-07-22T23:38:57.527Z,1004.91
2018-07-22T23:40:12.453Z,1004.92
2018-07-22T23:41:26.723Z,1004.92
2018-07-22T23:42:41.146Z,1004.95
2018-07-22T23:43:55.592Z,1004.96
2018-07-22T23:45:10.045Z,1004.97
2018-07-22T23:46:24.755Z,1004.96
2018-07-22T23:47:39.407Z,1004.95
2018-07-22T23:48:53.546Z,1004.99
2018-07-22T23:50:08.511Z,1004.92
2018-07-22T23:51:22.728Z,1004.91
2018-07-22T23:52:37.437Z,1004.92
2018-07-22T23:53:52.184Z,1004.86
2018-07-22T23:55:06.617Z,1004.85
2018-07-22T23:56:21.054Z,1004.83
2018-07-22T23:57:35.455Z,1004.84
2018-07-22T23:58:49.651Z,1004.83
